McCool, Mississippi
Current Conditions -  °F | °C
As of 6:15 AM on Friday 28 Nov 2014 (Local Time) from KSTF Reporting Station
NA  
Wind Chill: 25°   Ceiling: NA
Heat Index: 25°   Visibility: NA
Dew Point: 25°   Wind: 0mph
Humidity: 100%   Direction: NA
Pressure: 30.45"   Gusts: NA
Location:  33.2°N, 89.35°W
Report Text: KSTF 281215Z AUTO 00000KT M04/M04 A3045 RMK AO2 PWINO
Loading
Personal Weather Stations






























Interactive Weather Map New forecast layout! Learn more

10-Day Weather Forecast

Advertisements
Track Severe Weather on mobile